Time;durP1;ratioP1;P1;durP2;ratioP2;P2;SDS_P1;SDS_P2;PMS_P1;PMS_P2;Temp;Humidity;BMP_temperature;BMP_pressure;BME280_temperature;BME280_humidity;BME280_pressure;Samples;Min_cycle;Max_cycle;Signal;HPM_P1;HPM_P2
2023/10/09 00:02:09;;;;;;;1.55;1.42;;;;;;;8.66;100.00;101997.78;4951937;28;20202;-47
2023/10/09 00:04:41;;;;;;;1.35;1.25;;;;;;;8.75;100.00;101998.59;4951620;28;20211;-47
2023/10/09 00:07:08;;;;;;;0.98;0.90;;;;;;;8.64;100.00;101999.59;4942585;29;20186;-49
2023/10/09 00:09:46;;;;;;;3.20;1.55;;;;;;;8.55;100.00;101996.13;4955482;28;20186;-47
2023/10/09 00:12:23;;;;;;;1.50;1.08;;;;;;;8.57;100.00;101997.91;4952381;28;20592;-47
2023/10/09 00:14:50;;;;;;;0.93;0.75;;;;;;;8.69;100.00;101993.31;4952090;29;20281;-50
2023/10/09 00:17:17;;;;;;;3.00;1.05;;;;;;;8.73;100.00;101987.03;4970089;28;20588;-48
2023/10/09 00:19:49;;;;;;;2.13;1.17;;;;;;;8.71;100.00;101981.69;4953414;28;20183;-48
2023/10/09 00:25:09;;;;;;;1.38;1.17;;;;;;;8.60;100.00;101979.16;4949445;29;20190;-48
2023/10/09 00:27:36;;;;;;;2.38;1.05;;;;;;;8.52;100.00;101970.34;4954043;29;20187;-47
2023/10/09 00:30:02;;;;;;;1.55;1.45;;;;;;;8.53;100.00;101972.13;4947551;29;20237;-48
2023/10/09 00:32:32;;;;;;;2.10;1.20;;;;;;;8.66;100.00;101967.53;4954990;28;20223;-46
2023/10/09 00:35:13;;;;;;;3.00;1.45;;;;;;;8.68;100.00;101968.41;4953003;29;20191;-46
2023/10/09 00:37:39;;;;;;;2.15;1.10;;;;;;;8.65;100.00;101957.72;4947455;29;20203;-49
2023/10/09 00:40:19;;;;;;;1.60;1.30;;;;;;;8.69;100.00;101951.44;4952678;29;20197;-49
2023/10/09 00:42:45;;;;;;;2.42;1.30;;;;;;;8.64;100.00;101948.84;4951267;29;20254;-50
2023/10/09 00:45:16;;;;;;;1.85;1.27;;;;;;;8.58;100.00;101937.34;4953819;28;20190;-47
2023/10/09 00:47:43;;;;;;;2.97;1.50;;;;;;;8.56;100.00;101926.66;4952941;29;20365;-47
2023/10/09 00:52:52;;;;;;;1.90;1.20;;;;;;;8.46;100.00;101900.97;4951874;28;20222;-48
2023/10/09 00:55:27;;;;;;;5.50;1.40;;;;;;;8.35;100.00;101897.50;4949696;29;20194;-46
2023/10/09 00:57:59;;;;;;;1.92;1.30;;;;;;;8.38;100.00;101898.38;4950703;28;20249;-47
2023/10/09 01:00:52;;;;;;;1.52;1.00;;;;;;;8.31;100.00;101879.75;4949420;28;20194;-47
2023/10/09 01:06:16;;;;;;;2.03;1.15;;;;;;;8.19;100.00;101896.81;4951339;29;20261;-46
2023/10/09 01:11:18;;;;;;;2.83;1.30;;;;;;;8.13;100.00;101894.19;4953818;29;20638;-47
2023/10/09 01:16:16;;;;;;;3.58;1.45;;;;;;;8.07;100.00;101923.63;4952548;29;20293;-48
2023/10/09 01:18:49;;;;;;;1.95;1.10;;;;;;;8.07;100.00;101926.28;4951918;29;20190;-47
2023/10/09 01:21:15;;;;;;;1.50;1.35;;;;;;;8.22;100.00;101923.47;4957962;28;20662;-48
2023/10/09 01:23:59;;;;;;;2.28;1.40;;;;;;;8.23;100.00;101903.88;4953085;28;20277;-47
2023/10/09 01:26:32;;;;;;;3.97;1.20;;;;;;;8.14;100.00;101874.63;4953987;28;20170;-48
2023/10/09 01:28:59;;;;;;;2.38;1.17;;;;;;;8.17;100.00;101877.25;4954120;28;20171;-47
2023/10/09 01:31:26;;;;;;;1.98;1.25;;;;;;;8.16;100.00;101881.72;4954024;28;20195;-47
2023/10/09 01:33:54;;;;;;;1.02;0.93;;;;;;;8.17;100.00;101870.13;4951922;28;20223;-51
2023/10/09 01:36:31;;;;;;;2.38;1.25;;;;;;;8.18;100.00;101869.22;4951084;28;20947;-47
2023/10/09 01:39:07;;;;;;;1.33;0.98;;;;;;;8.31;100.00;101886.00;4954654;28;20189;-46
2023/10/09 01:41:34;;;;;;;1.00;0.95;;;;;;;8.16;100.00;101879.03;4949956;28;20286;-47
2023/10/09 01:44:10;;;;;;;1.08;1.08;;;;;;;8.13;100.00;101880.84;4949117;28;20218;-47
2023/10/09 01:46:36;;;;;;;1.65;1.30;;;;;;;7.93;100.00;101867.72;4949084;28;20194;-47
2023/10/09 01:49:08;;;;;;;1.48;1.15;;;;;;;8.05;100.00;101865.81;4953393;28;20900;-47
2023/10/09 01:51:36;;;;;;;4.55;1.23;;;;;;;8.00;100.00;101867.66;4948461;28;20213;-46
2023/10/09 01:54:02;;;;;;;1.95;1.40;;;;;;;7.79;100.00;101858.09;4947791;28;20206;-47
2023/10/09 01:56:28;;;;;;;1.65;1.00;;;;;;;8.00;100.00;101861.41;4951821;28;20229;-46
2023/10/09 01:58:57;;;;;;;1.35;0.98;;;;;;;7.94;100.00;101854.38;4946204;29;20233;-48
2023/10/09 02:01:23;;;;;;;1.98;1.27;;;;;;;7.93;100.00;101844.59;4952000;29;20214;-48
2023/10/09 02:03:51;;;;;;;2.25;1.13;;;;;;;7.90;100.00;101844.63;4951871;28;20218;-47
2023/10/09 02:06:28;;;;;;;3.20;1.58;;;;;;;7.78;100.00;101843.00;4963438;28;20301;-48
2023/10/09 02:08:54;;;;;;;2.40;1.10;;;;;;;7.76;100.00;101823.44;4947111;29;20193;-49
2023/10/09 02:11:24;;;;;;;2.13;1.30;;;;;;;7.81;100.00;101837.63;4944501;28;20655;-49
2023/10/09 02:14:00;;;;;;;2.55;1.10;;;;;;;7.79;100.00;101822.53;4951280;28;20685;-48
2023/10/09 02:16:29;;;;;;;2.53;1.17;;;;;;;7.77;100.00;101816.31;4946203;29;20182;-50
2023/10/09 02:21:33;;;;;;;1.83;1.38;;;;;;;7.65;100.00;101798.66;4950830;29;20186;-48
2023/10/09 02:24:05;;;;;;;1.25;1.15;;;;;;;7.68;100.00;101787.09;4951569;28;20210;-47
2023/10/09 02:29:26;;;;;;;1.52;1.20;;;;;;;7.45;100.00;101763.31;4952727;29;20208;-48
2023/10/09 02:31:51;;;;;;;2.25;1.13;;;;;;;7.45;100.00;101766.84;4952542;28;20309;-48
2023/10/09 02:34:24;;;;;;;2.95;1.10;;;;;;;7.49;100.00;101762.38;4945630;28;20300;-48
2023/10/09 02:36:57;;;;;;;1.55;1.17;;;;;;;7.43;100.00;101750.91;4947596;29;20689;-47
2023/10/09 02:39:24;;;;;;;3.05;1.40;;;;;;;7.42;100.00;101745.56;4951504;29;20190;-48
2023/10/09 02:42:20;;;;;;;1.92;1.10;;;;;;;7.39;100.00;101743.81;4951569;28;20666;-47
2023/10/09 02:44:51;;;;;;;1.58;1.30;;;;;;;7.43;100.00;101728.66;4952675;28;20497;-47
2023/10/09 02:47:24;;;;;;;2.10;1.23;;;;;;;7.45;100.00;101731.31;4944805;29;20238;-48
2023/10/09 02:49:51;;;;;;;1.88;1.00;;;;;;;7.45;100.00;101732.19;4949396;28;20319;-50
2023/10/09 02:52:19;;;;;;;2.33;1.17;;;;;;;7.42;100.00;101722.44;4950930;28;20230;-46
2023/10/09 02:54:47;;;;;;;2.30;1.00;;;;;;;7.55;100.00;101725.00;4951028;28;20183;-49
2023/10/09 02:57:23;;;;;;;1.83;1.23;;;;;;;7.48;100.00;101712.59;4951250;28;20187;-48
2023/10/09 02:59:51;;;;;;;5.60;1.35;;;;;;;7.51;100.00;101715.25;4945242;29;20193;-47
2023/10/09 03:02:18;;;;;;;2.58;1.42;;;;;;;7.51;100.00;101704.59;4951294;29;20289;-47
2023/10/09 03:04:44;;;;;;;2.72;1.08;;;;;;;7.51;100.00;101704.59;4945576;28;20206;-52
2023/10/09 03:07:10;;;;;;;2.15;1.20;;;;;;;7.57;100.00;101693.88;4947582;29;20187;-47
2023/10/09 03:09:37;;;;;;;3.75;1.40;;;;;;;7.51;100.00;101681.47;4947670;29;20538;-47
2023/10/09 03:12:04;;;;;;;2.38;1.35;;;;;;;7.48;100.00;101688.63;4949042;29;20317;-49
2023/10/09 03:14:35;;;;;;;3.10;1.20;;;;;;;7.50;100.00;101702.81;4953088;28;20238;-47
2023/10/09 03:17:01;;;;;;;1.45;1.20;;;;;;;7.50;100.00;101701.06;4951486;28;20197;-49
2023/10/09 03:19:38;;;;;;;2.35;1.38;;;;;;;7.54;100.00;101686.78;4947957;28;20238;-48
2023/10/09 03:22:10;;;;;;;3.05;1.40;;;;;;;7.54;100.00;101672.53;4955090;28;20237;-49
2023/10/09 03:24:38;;;;;;;2.67;1.30;;;;;;;7.55;100.00;101661.00;4954112;28;20199;-47
2023/10/09 03:27:04;;;;;;;1.90;1.42;;;;;;;7.55;100.00;101671.66;4955266;28;20213;-47
2023/10/09 03:29:30;;;;;;;2.40;1.40;;;;;;;7.54;100.00;101670.78;4951923;28;20190;-50
2023/10/09 03:31:56;;;;;;;1.80;1.38;;;;;;;7.57;100.00;101677.88;4955109;29;20209;-47
2023/10/09 03:34:23;;;;;;;1.50;1.40;;;;;;;7.58;100.00;101666.28;4955286;28;20234;-49
2023/10/09 03:37:03;;;;;;;2.88;1.30;;;;;;;7.60;100.00;101664.47;4951520;28;20187;-47
2023/10/09 03:42:05;;;;;;;1.60;1.27;;;;;;;7.71;100.00;101680.34;4953144;28;20201;-48
2023/10/09 03:44:33;;;;;;;1.83;1.40;;;;;;;7.67;100.00;101682.16;4955188;28;20265;-49
2023/10/09 03:46:59;;;;;;;5.15;1.38;;;;;;;7.65;100.00;101675.97;4954930;28;20712;-47
2023/10/09 03:49:25;;;;;;;3.65;1.48;;;;;;;7.65;100.00;101665.28;4955367;28;20194;-50
2023/10/09 03:51:51;;;;;;;4.97;1.50;;;;;;;7.72;100.00;101671.44;4957945;28;20676;-47
2023/10/09 03:54:20;;;;;;;2.90;1.70;;;;;;;7.70;100.00;101652.81;4952329;28;20264;-46
2023/10/09 03:56:49;;;;;;;2.35;1.90;;;;;;;7.74;100.00;101654.53;4958831;28;20654;-49
2023/10/09 03:59:19;;;;;;;2.47;1.80;;;;;;;7.75;100.00;101666.06;4952393;29;20195;-47
2023/10/09 04:01:46;;;;;;;4.15;2.00;;;;;;;7.75;100.00;101664.28;4955071;28;20194;-47
2023/10/09 04:04:14;;;;;;;2.30;1.80;;;;;;;7.79;100.00;101660.69;4952691;28;20230;-48
2023/10/09 04:06:40;;;;;;;5.00;2.10;;;;;;;7.80;100.00;101658.88;4955362;28;20210;-47
2023/10/09 04:11:57;;;;;;;2.95;2.25;;;;;;;7.81;100.00;101658.00;4949721;28;20677;-48
2023/10/09 04:14:32;;;;;;;3.92;2.40;;;;;;;7.82;100.00;101660.63;4951056;29;20202;-47
2023/10/09 04:17:06;;;;;;;2.25;1.83;;;;;;;7.90;100.00;101644.53;4955334;28;20196;-48
2023/10/09 04:19:39;;;;;;;3.70;2.53;;;;;;;7.92;100.00;101649.84;4952003;28;20187;-47
2023/10/09 04:22:09;;;;;;;3.22;2.40;;;;;;;7.95;100.00;101647.13;4946720;28;20225;-48
2023/10/09 04:24:44;;;;;;;6.75;2.65;;;;;;;7.92;100.00;101641.84;4947799;29;20293;-47
2023/10/09 04:27:10;;;;;;;4.57;2.72;;;;;;;7.95;100.00;101633.78;4948035;29;20250;-47
2023/10/09 04:29:38;;;;;;;4.30;2.60;;;;;;;7.99;100.00;101630.16;4951204;29;20258;-47
2023/10/09 04:32:07;;;;;;;4.43;2.80;;;;;;;8.01;100.00;101621.22;4950001;29;20210;-47
2023/10/09 04:34:48;;;;;;;5.28;3.25;;;;;;;7.99;100.00;101622.16;4953233;28;20686;-49
2023/10/09 04:39:46;;;;;;;6.10;3.35;;;;;;;7.95;100.00;101605.31;4954759;28;20559;-47
2023/10/09 04:42:57;;;;;;;9.25;3.30;;;;;;;7.97;100.00;101594.63;4954358;28;20191;-48
2023/10/09 04:47:57;;;;;;;6.45;3.30;;;;;;;8.03;100.00;101614.09;4954615;28;20194;-47
2023/10/09 04:52:55;;;;;;;5.88;3.90;;;;;;;8.02;100.00;101600.75;4954301;28;20214;-47
2023/10/09 04:55:24;;;;;;;7.18;4.05;;;;;;;7.98;100.00;101586.59;4954462;29;20205;-48
2023/10/09 04:58:12;;;;;;;6.53;3.92;;;;;;;8.05;100.00;101579.38;4954508;29;20171;-47
2023/10/09 05:03:10;;;;;;;4.88;3.92;;;;;;;8.00;100.00;101581.22;4954083;28;20203;-47
2023/10/09 05:08:20;;;;;;;5.07;3.92;;;;;;;8.03;100.00;101566.03;4954422;29;20182;-47
2023/10/09 05:16:29;;;;;;;6.50;3.80;;;;;;;8.02;100.00;101542.03;4954073;29;20175;-47
2023/10/09 05:19:08;;;;;;;4.68;3.60;;;;;;;8.03;100.00;101549.16;4954412;29;20250;-48
2023/10/09 05:29:19;;;;;;;6.15;3.72;;;;;;;8.05;100.00;101526.88;4953602;29;20175;-47
2023/10/09 05:34:33;;;;;;;5.50;3.53;;;;;;;8.03;100.00;101527.81;4953615;28;20198;-45
2023/10/09 05:37:16;;;;;;;7.35;3.35;;;;;;;8.08;100.00;101531.28;4953669;29;20565;-46
2023/10/09 05:40:08;;;;;;;6.13;3.40;;;;;;;8.05;100.00;101540.22;4953851;29;20545;-46
2023/10/09 06:03:54;;;;;;;4.85;3.03;;;;;;;8.28;100.00;101551.41;4952062;28;20281;-45
2023/10/09 06:06:42;;;;;;;5.25;3.20;;;;;;;8.32;100.00;101559.34;4953189;29;20167;-42
2023/10/09 06:19:48;;;;;;;6.35;2.83;;;;;;;8.45;100.00;101563.59;4952581;29;20321;-44
2023/10/09 06:25:08;;;;;;;3.20;2.90;;;;;;;8.49;100.00;101555.53;4952998;29;20182;-44
2023/10/09 06:30:24;;;;;;;5.80;3.13;;;;;;;8.48;100.00;101556.44;4953146;29;20273;-43
2023/10/09 06:33:04;;;;;;;5.13;3.15;;;;;;;8.51;100.00;101554.59;4953088;28;20365;-43
2023/10/09 06:35:39;;;;;;;5.95;3.60;;;;;;;8.52;100.00;101550.13;4953193;29;20571;-45
2023/10/09 06:38:22;;;;;;;3.75;3.25;;;;;;;8.54;100.00;101553.66;4953054;29;20186;-43
2023/10/09 06:43:36;;;;;;;5.78;3.35;;;;;;;8.64;100.00;101556.13;4936950;29;20206;-44
2023/10/09 06:48:55;;;;;;;6.80;3.72;;;;;;;8.70;100.00;101544.44;4942401;29;20262;-45
2023/10/09 06:59:24;;;;;;;7.15;3.65;;;;;;;8.82;100.00;101554.03;4956450;29;20249;-44
2023/10/09 07:02:25;;;;;;;5.72;3.63;;;;;;;8.86;100.00;101543.25;4953447;29;20257;-43
2023/10/09 07:07:07;;;;;;;4.53;3.33;;;;;;;8.86;100.00;101539.69;4956798;28;20697;-44
2023/10/09 07:09:42;;;;;;;4.40;3.50;;;;;;;8.81;100.00;101542.47;4956624;29;20194;-44
2023/10/09 07:12:25;;;;;;;4.68;3.75;;;;;;;8.77;100.00;101532.75;4956407;28;20201;-43
2023/10/09 07:20:13;;;;;;;4.47;3.17;;;;;;;8.83;100.00;101534.41;4956494;29;20230;-43
2023/10/09 07:22:52;;;;;;;3.90;3.13;;;;;;;8.83;100.00;101529.97;4955017;28;20468;-42
2023/10/09 07:25:40;;;;;;;8.00;3.28;;;;;;;8.84;100.00;101536.19;4956269;28;20588;-48
2023/10/09 07:28:36;;;;;;;5.53;3.42;;;;;;;8.89;100.00;101536.97;4956356;28;20179;-45
2023/10/09 07:30:57;;;;;;;6.47;3.10;;;;;;;8.92;100.00;101546.69;4936811;29;20209;-46
2023/10/09 07:33:33;;;;;;;6.22;3.17;;;;;;;8.95;100.00;101541.31;4946502;29;20269;-44
2023/10/09 07:36:05;;;;;;;6.57;2.97;;;;;;;8.98;100.00;101544.78;4956152;28;20174;-46
2023/10/09 07:38:37;;;;;;;6.22;3.20;;;;;;;8.99;100.00;101546.56;4955874;28;20571;-43
2023/10/09 07:43:38;;;;;;;6.03;2.80;;;;;;;9.03;100.00;101539.34;4955765;28;20606;-45
2023/10/09 07:48:52;;;;;;;5.38;2.63;;;;;;;9.13;100.00;101532.03;4955925;29;20270;-45
2023/10/09 07:51:23;;;;;;;4.70;2.60;;;;;;;9.26;100.00;101525.50;4954211;29;20282;-46
2023/10/09 07:53:56;;;;;;;5.00;2.90;;;;;;;9.23;100.00;101518.44;4955764;28;20257;-43
2023/10/09 07:56:23;;;;;;;4.43;2.90;;;;;;;9.20;100.00;101525.63;4955410;28;20197;-47
2023/10/09 07:58:49;;;;;;;4.22;2.60;;;;;;;9.33;100.00;101529.78;4955564;29;20167;-45
2023/10/09 08:01:16;;;;;;;4.70;2.58;;;;;;;9.32;100.00;101525.38;4954274;29;20190;-45
2023/10/09 08:06:51;;;;;;;4.95;2.80;;;;;;;9.31;100.00;101533.41;4945660;29;20195;-44
2023/10/09 08:09:17;;;;;;;4.90;2.15;;;;;;;9.49;100.00;101522.34;4949852;29;20206;-47
2023/10/09 08:12:13;;;;;;;7.38;2.55;;;;;;;9.50;100.00;101524.06;4955376;28;20556;-42
2023/10/09 08:14:48;;;;;;;3.55;1.95;;;;;;;9.61;100.00;101529.19;4955331;28;20678;-43
2023/10/09 08:17:20;;;;;;;8.25;2.70;;;;;;;9.59;100.00;101523.88;4955445;29;20236;-43
2023/10/09 08:19:55;;;;;;;6.22;2.67;;;;;;;9.52;100.00;101521.38;4955620;28;20222;-46
2023/10/09 08:24:57;;;;;;;4.13;2.00;;;;;;;9.58;100.00;101523.91;4955153;28;20197;-44
2023/10/09 08:32:43;;;;;;;2.30;2.00;;;;;;;9.57;100.00;101517.66;4968034;28;20585;-43
2023/10/09 08:37:54;;;;;;;2.83;2.03;;;;;;;9.58;100.00;101531.94;4954875;28;20381;-44
2023/10/09 08:40:31;;;;;;;4.15;2.17;;;;;;;9.64;100.00;101527.34;4954913;28;20201;-45
2023/10/09 08:43:08;;;;;;;2.58;1.70;;;;;;;9.51;100.00;101527.63;4936033;29;20199;-45
2023/10/09 08:45:39;;;;;;;5.15;2.22;;;;;;;9.52;100.00;101538.31;4944989;29;20605;-43
2023/10/09 08:48:06;;;;;;;4.38;2.22;;;;;;;9.45;100.00;101531.34;4954642;28;20673;-45
2023/10/09 08:50:34;;;;;;;2.70;1.95;;;;;;;9.53;100.00;101521.31;4954315;28;20209;-47
2023/10/09 08:53:03;;;;;;;3.65;1.98;;;;;;;9.54;100.00;101531.13;4954411;28;20226;-43
2023/10/09 08:55:29;;;;;;;4.57;2.17;;;;;;;9.48;100.00;101532.13;4954393;28;20189;-47
2023/10/09 08:57:58;;;;;;;5.03;2.00;;;;;;;9.40;100.00;101527.88;4953685;29;20245;-45
2023/10/09 09:00:23;;;;;;;3.53;2.17;;;;;;;9.34;100.00;101528.03;4955053;28;20191;-44
2023/10/09 09:02:55;;;;;;;5.05;2.10;;;;;;;9.41;100.00;101530.50;4955311;28;20269;-46
2023/10/09 09:05:21;;;;;;;3.75;2.33;;;;;;;9.41;100.00;101535.00;4955118;28;20183;-43
2023/10/09 09:07:47;;;;;;;5.95;2.35;;;;;;;9.41;100.00;101527.84;4954431;28;20213;-44
2023/10/09 09:10:23;;;;;;;2.97;2.08;;;;;;;9.48;100.00;101536.59;4954851;28;20217;-44
2023/10/09 09:13:10;;;;;;;4.68;2.50;;;;;;;9.41;100.00;101540.34;4954827;28;20245;-43
2023/10/09 09:15:39;;;;;;;5.38;2.85;;;;;;;9.38;100.00;101540.38;4954937;29;20201;-43
2023/10/09 09:18:06;;;;;;;5.93;2.40;;;;;;;9.37;100.00;101544.00;4954796;28;20202;-44
2023/10/09 09:20:39;;;;;;;7.65;2.60;;;;;;;9.27;100.00;101538.84;4954820;28;20174;-43
2023/10/09 09:23:09;;;;;;;5.78;2.85;;;;;;;9.41;100.00;101535.00;4954389;28;20209;-45
2023/10/09 09:25:45;;;;;;;7.10;2.80;;;;;;;9.44;100.00;101542.94;4954885;28;20186;-44
2023/10/09 09:28:21;;;;;;;5.68;2.80;;;;;;;9.46;100.00;101541.09;4954860;28;20648;-45
2023/10/09 09:30:56;;;;;;;3.92;2.60;;;;;;;9.39;100.00;101544.84;4954875;28;20167;-44
2023/10/09 09:33:27;;;;;;;3.65;2.55;;;;;;;9.41;100.00;101543.88;4952844;28;20229;-43
2023/10/09 09:36:03;;;;;;;6.18;2.88;;;;;;;9.48;100.00;101534.81;4954595;28;20203;-43
2023/10/09 09:38:50;;;;;;;6.03;3.13;;;;;;;9.58;100.00;101535.50;4954291;28;20650;-43
2023/10/09 09:41:25;;;;;;;4.15;3.00;;;;;;;9.38;100.00;101527.91;4954090;29;20214;-44
2023/10/09 09:44:00;;;;;;;6.32;2.97;;;;;;;9.48;100.00;101529.47;4953916;28;20197;-44
2023/10/09 09:46:33;;;;;;;4.43;2.67;;;;;;;9.56;100.00;101534.66;4954370;28;20197;-43
2023/10/09 09:49:05;;;;;;;5.03;3.00;;;;;;;9.54;100.00;101532.94;4954200;28;20182;-45
2023/10/09 09:51:32;;;;;;;6.68;3.15;;;;;;;9.55;100.00;101521.28;4952589;29;20237;-45
2023/10/09 09:53:57;;;;;;;4.95;3.35;;;;;;;9.56;100.00;101512.38;4954011;28;20729;-43
2023/10/09 09:56:28;;;;;;;4.60;2.90;;;;;;;9.65;100.00;101509.47;4954207;28;20187;-46
2023/10/09 09:59:01;;;;;;;5.70;2.80;;;;;;;9.67;100.00;101504.97;4954173;28;20235;-43
2023/10/09 10:01:31;;;;;;;6.07;2.80;;;;;;;9.78;100.00;101502.91;4954772;28;20178;-43
2023/10/09 10:04:11;;;;;;;7.40;3.17;;;;;;;9.88;100.00;101496.44;4954253;28;20195;-45
2023/10/09 10:06:40;;;;;;;6.90;3.15;;;;;;;9.85;100.00;101498.28;4953106;29;20174;-42
2023/10/09 10:09:07;;;;;;;7.80;3.10;;;;;;;9.93;100.00;101492.72;4952146;29;20556;-44
2023/10/09 10:11:44;;;;;;;3.92;2.95;;;;;;;9.92;100.00;101499.03;4953227;28;20189;-45
2023/10/09 10:14:28;;;;;;;4.40;2.95;;;;;;;10.03;100.00;101496.94;4953148;28;20543;-43
2023/10/09 10:17:00;;;;;;;5.28;2.75;;;;;;;10.14;100.00;101499.34;4950452;29;20197;-44
2023/10/09 10:20:01;;;;;;;4.25;2.70;;;;;;;10.02;100.00;101501.44;4953061;28;20186;-44
2023/10/09 10:22:30;;;;;;;5.80;2.75;;;;;;;10.02;100.00;101511.25;4943831;28;20551;-44
2023/10/09 10:25:02;;;;;;;5.55;3.00;;;;;;;10.10;100.00;101503.91;4955845;28;20269;-45
2023/10/09 10:27:44;;;;;;;4.55;3.17;;;;;;;9.98;100.00;101517.63;4952796;29;20268;-45
2023/10/09 10:30:13;;;;;;;7.57;3.08;;;;;;;9.93;100.00;101517.72;4951613;29;20197;-45
2023/10/09 10:32:57;;;;;;;3.78;2.63;;;;;;;9.93;100.00;101512.38;4952743;28;20651;-45
2023/10/09 10:35:39;;;;;;;5.22;3.00;;;;;;;9.93;100.00;101515.06;4940569;29;20625;-44
2023/10/09 10:38:24;;;;;;;4.53;3.33;;;;;;;9.92;100.00;101523.09;4948950;29;20174;-44
2023/10/09 10:40:57;;;;;;;5.85;2.88;;;;;;;9.99;100.00;101533.66;4952895;28;20673;-43
2023/10/09 10:46:24;;;;;;;4.43;2.83;;;;;;;9.93;100.00;101544.50;4953007;28;20249;-43
2023/10/09 10:48:59;;;;;;;5.55;3.00;;;;;;;9.91;100.00;101538.28;4952618;28;20175;-47
2023/10/09 10:51:39;;;;;;;7.43;2.97;;;;;;;10.05;100.00;101537.94;4951338;29;20183;-43
2023/10/09 10:54:45;;;;;;;5.97;3.10;;;;;;;10.10;100.00;101547.66;4952720;28;20198;-43
2023/10/09 10:57:37;;;;;;;5.05;2.97;;;;;;;10.16;100.00;101545.72;4953175;28;20179;-47
2023/10/09 11:03:13;;;;;;;4.15;2.90;;;;;;;10.10;100.00;101530.66;4942473;28;20202;-44
2023/10/09 11:05:41;;;;;;;3.58;3.13;;;;;;;10.13;100.00;101530.63;4952507;28;20270;-45
2023/10/09 11:08:10;;;;;;;3.45;3.10;;;;;;;10.25;100.00;101527.59;4952665;28;20179;-45
2023/10/09 11:10:36;;;;;;;7.05;3.67;;;;;;;10.29;100.00;101515.94;4952442;28;20206;-43
2023/10/09 11:15:44;;;;;;;6.28;3.72;;;;;;;10.42;100.00;101515.63;4952593;29;20190;-44
2023/10/09 11:18:20;;;;;;;3.67;3.30;;;;;;;10.43;100.00;101515.59;4952516;29;20189;-47
2023/10/09 11:26:25;;;;;;;4.72;2.85;;;;;;;10.55;100.00;101521.53;4950553;28;20202;-44
2023/10/09 11:29:13;;;;;;;5.22;3.17;;;;;;;10.48;100.00;101518.13;4947213;29;20304;-46
2023/10/09 11:31:40;;;;;;;7.85;3.10;;;;;;;10.31;100.00;101519.44;4955731;28;20621;-48
2023/10/09 11:34:28;;;;;;;3.88;2.88;;;;;;;10.40;100.00;101523.69;4955641;29;20202;-46
2023/10/09 11:37:00;;;;;;;3.88;2.65;;;;;;;10.45;100.00;101518.19;4951840;29;20612;-44
2023/10/09 11:39:32;;;;;;;5.70;3.42;;;;;;;10.46;100.00;101509.25;4954319;29;20211;-43
2023/10/09 11:42:04;;;;;;;4.38;3.15;;;;;;;10.46;100.00;101518.16;4955596;28;20201;-44
2023/10/09 11:44:55;;;;;;;5.35;2.97;;;;;;;10.41;100.00;101522.78;4955357;28;20203;-45
2023/10/09 11:53:09;;;;;;;2.88;2.60;;;;;;;10.52;100.00;101528.72;4942748;29;20768;-43
2023/10/09 11:55:16;;;;;;;6.53;4.28;;;;;;;10.46;100.00;101533.38;4947104;28;20209;-50
2023/10/09 11:57:42;;;;;;;5.25;3.30;;;;;;;10.45;100.00;101529.81;4943455;28;20209;-48
2023/10/09 12:00:25;;;;;;;5.07;3.25;;;;;;;10.51;100.00;101532.31;4950805;29;20183;-48
2023/10/09 12:02:52;;;;;;;3.28;2.60;;;;;;;10.55;100.00;101527.75;4942881;28;20277;-48
2023/10/09 12:05:18;;;;;;;3.10;2.67;;;;;;;10.40;100.00;101537.09;4948647;28;20205;-48
2023/10/09 12:07:54;;;;;;;3.13;2.80;;;;;;;10.50;100.00;101529.69;4945965;28;20187;-48
2023/10/09 12:10:25;;;;;;;5.85;2.50;;;;;;;10.55;100.00;101525.09;4948832;29;20202;-49
2023/10/09 12:12:57;;;;;;;4.20;2.63;;;;;;;10.45;100.00;101518.19;4943285;28;20597;-46
2023/10/09 12:15:24;;;;;;;3.08;2.88;;;;;;;10.48;100.00;101515.47;4946893;29;20729;-48
2023/10/09 12:17:49;;;;;;;3.78;2.60;;;;;;;10.55;100.00;101518.84;4947390;29;20171;-47
2023/10/09 12:20:31;;;;;;;3.35;2.72;;;;;;;10.54;100.00;101514.41;4946852;28;20651;-49
2023/10/09 12:22:58;;;;;;;3.72;2.67;;;;;;;10.64;100.00;101514.09;4948350;28;20682;-47
2023/10/09 12:25:24;;;;;;;3.42;3.13;;;;;;;10.68;100.00;101517.59;4944928;29;20266;-48
2023/10/09 12:27:50;;;;;;;3.08;2.78;;;;;;;10.69;100.00;101509.53;4944712;28;20190;-48
2023/10/09 12:30:15;;;;;;;3.05;2.80;;;;;;;10.80;100.00;101508.31;4948646;29;20177;-47
2023/10/09 12:32:41;;;;;;;3.03;2.78;;;;;;;10.84;100.00;101507.31;4948030;28;20237;-48
2023/10/09 12:35:17;;;;;;;3.15;2.90;;;;;;;10.83;100.00;101513.63;4947150;29;20229;-49
2023/10/09 12:37:43;;;;;;;3.40;3.08;;;;;;;10.76;100.00;101518.28;4959965;28;20191;-47
2023/10/09 12:40:10;;;;;;;3.08;2.80;;;;;;;10.71;100.00;101517.50;4946236;28;20266;-48
2023/10/09 12:42:36;;;;;;;2.40;2.20;;;;;;;10.82;100.00;101510.06;4948532;28;20174;-48
2023/10/09 12:45:09;;;;;;;3.10;2.80;;;;;;;10.82;100.00;101517.19;4945252;29;20733;-47
2023/10/09 12:47:37;;;;;;;4.28;3.10;;;;;;;10.83;100.00;101505.56;4944882;29;20550;-48
2023/10/09 12:50:12;;;;;;;3.13;2.70;;;;;;;10.86;100.00;101500.97;4946618;29;20815;-47
2023/10/09 12:52:38;;;;;;;3.33;2.50;;;;;;;10.96;100.00;101500.75;4945817;29;20206;-50
2023/10/09 12:55:08;;;;;;;3.17;2.33;;;;;;;11.02;100.00;101505.91;4946775;28;20782;-46
2023/10/09 12:57:34;;;;;;;2.50;2.30;;;;;;;11.02;100.00;101511.25;4946955;29;20187;-47
2023/10/09 12:59:59;;;;;;;2.72;2.53;;;;;;;11.07;100.00;101512.03;4946740;28;20187;-47
2023/10/09 13:02:31;;;;;;;2.75;2.45;;;;;;;10.90;100.00;101491.06;4948040;28;20183;-47
2023/10/09 13:05:00;;;;;;;2.40;2.20;;;;;;;10.95;100.00;101489.13;4945000;29;20179;-47
2023/10/09 13:07:25;;;;;;;3.60;2.38;;;;;;;11.04;100.00;101483.50;4948875;28;20609;-47
2023/10/09 13:10:12;;;;;;;1.85;1.75;;;;;;;11.11;100.00;101479.72;4944474;29;20195;-48
2023/10/09 13:12:43;;;;;;;2.00;1.90;;;;;;;11.17;100.00;101486.66;4939990;29;20741;-48
2023/10/09 13:15:10;;;;;;;2.33;2.13;;;;;;;11.19;100.00;101489.31;4947576;29;20200;-48
2023/10/09 13:17:38;;;;;;;2.38;2.17;;;;;;;11.25;100.00;101487.31;4947121;29;20183;-48
2023/10/09 13:20:15;;;;;;;2.20;2.00;;;;;;;11.09;100.00;101480.69;4944926;29;20274;-47
2023/10/09 13:22:41;;;;;;;2.63;2.42;;;;;;;11.06;100.00;101470.94;4944436;29;20253;-47
2023/10/09 13:25:15;;;;;;;2.78;2.33;;;;;;;11.04;100.00;101467.41;4947169;29;20175;-47
2023/10/09 13:27:41;;;;;;;2.78;2.58;;;;;;;11.18;100.00;101482.22;4943742;29;20218;-47
2023/10/09 13:30:08;;;;;;;5.82;3.50;;;;;;;11.13;100.00;101487.72;4944947;28;20183;-47
2023/10/09 13:32:35;;;;;;;2.00;1.80;;;;;;;11.20;100.00;101491.09;4944494;29;20263;-47
2023/10/09 13:35:04;;;;;;;1.80;1.63;;;;;;;11.20;100.00;101491.09;4947000;29;20498;-47
2023/10/09 13:37:31;;;;;;;1.85;1.75;;;;;;;11.17;100.00;101488.47;4947267;29;20672;-48
2023/10/09 13:39:57;;;;;;;2.72;1.80;;;;;;;11.19;100.00;101490.19;4958760;28;20187;-47
2023/10/09 13:42:26;;;;;;;2.05;1.70;;;;;;;11.09;100.00;101491.41;4945160;29;20182;-47
2023/10/09 13:44:53;;;;;;;1.88;1.40;;;;;;;11.17;100.00;101505.44;4942909;28;20180;-47
2023/10/09 13:47:20;;;;;;;1.70;1.60;;;;;;;11.14;100.00;101494.81;4940830;28;20176;-47
2023/10/09 13:49:50;;;;;;;4.95;1.60;;;;;;;11.07;100.00;101495.94;4944966;29;20190;-49
2023/10/09 13:52:18;;;;;;;3.15;1.67;;;;;;;11.10;100.00;101499.38;4941156;28;20203;-48
2023/10/09 13:54:48;;;;;;;2.00;1.60;;;;;;;11.06;100.00;101497.75;4943653;28;20293;-48
2023/10/09 13:57:15;;;;;;;1.60;1.50;;;;;;;11.16;100.00;101498.34;4940750;28;20187;-49
2023/10/09 13:59:50;;;;;;;2.38;1.98;;;;;;;11.09;100.00;101503.00;4943147;28;20221;-49
2023/10/09 14:02:17;;;;;;;2.38;1.65;;;;;;;11.06;100.00;101497.75;4944481;29;20185;-48
2023/10/09 14:04:43;;;;;;;1.50;1.40;;;;;;;11.02;100.00;101504.13;4940476;29;20270;-48
2023/10/09 14:07:09;;;;;;;1.88;1.70;;;;;;;11.01;100.00;101505.03;4949789;29;20216;-48
2023/10/09 14:09:39;;;;;;;1.90;1.73;;;;;;;10.91;100.00;101509.78;4940264;29;20202;-48
2023/10/09 14:12:07;;;;;;;2.90;1.60;;;;;;;11.00;100.00;101508.66;4940134;29;20223;-48
2023/10/09 14:15:00;;;;;;;2.95;2.13;;;;;;;10.96;100.00;101503.41;4945274;28;20304;-48